Time;durP1;ratioP1;P1;durP2;ratioP2;P2;SDS_P1;SDS_P2;PMS_P1;PMS_P2;Temp;Humidity;BMP_temperature;BMP_pressure;BME280_temperature;BME280_humidity;BME280_pressure;Samples;Min_cycle;Max_cycle;Signal;HPM_P1;HPM_P2
2022/05/10 00:02:03;;;;;;;;;21.50;20.50;;;;;13.14;93.07;100232.53;6285006;20;2830454;-60
2022/05/10 00:04:31;;;;;;;;;21.00;21.00;;;;;12.89;94.51;100234.03;6280452;20;2500319;-60
2022/05/10 00:07:00;;;;;;;;;25.50;21.00;;;;;12.93;95.75;100232.03;6281042;20;2827589;-60
2022/05/10 00:09:29;;;;;;;;;18.00;17.00;;;;;12.90;94.60;100235.78;6281837;20;2492357;-60
2022/05/10 00:11:59;;;;;;;;;23.00;21.33;;;;;12.83;95.41;100234.44;6285374;20;2842006;-60
2022/05/10 00:14:29;;;;;;;;;21.00;20.00;;;;;12.74;96.51;100233.19;6315527;20;2839865;-60
2022/05/10 00:16:58;;;;;;;;;24.00;23.00;;;;;12.80;96.23;100233.78;6284779;20;2843093;-59
2022/05/10 00:19:30;;;;;;;;;23.50;22.00;;;;;12.89;94.61;100227.78;6280738;20;2851033;-60
2022/05/10 00:21:59;;;;;;;;;25.00;23.50;;;;;13.15;92.64;100218.06;6283140;20;2854544;-60
2022/05/10 00:24:28;;;;;;;;;22.00;20.00;;;;;13.16;91.81;100230.56;6282446;20;2850239;-60
2022/05/10 00:26:57;;;;;;;;;18.50;18.50;;;;;13.33;91.07;100221.44;6281353;20;2839842;-60
2022/05/10 00:29:26;;;;;;;;;22.00;19.50;;;;;13.24;91.17;100222.84;6281714;20;2852377;-60
2022/05/10 00:31:54;;;;;;;;;23.00;21.00;;;;;12.95;93.24;100225.59;6284471;20;2837781;-60
2022/05/10 00:34:28;;;;;;;;;17.00;17.00;;;;;13.11;92.42;100221.91;6283447;20;2826308;-60
2022/05/10 00:36:57;;;;;;;;;15.67;15.67;;;;;13.10;92.69;100217.47;6313571;20;3542989;-60
2022/05/10 00:39:25;;;;;;;;;20.33;19.00;;;;;12.92;93.70;100217.66;6281347;20;2831571;-60
2022/05/10 00:42:27;;;;;;;;;23.00;20.50;;;;;12.81;93.93;100213.94;6313808;20;2832578;-59
2022/05/10 00:45:07;;;;;;;;;20.00;17.00;;;;;12.81;94.37;100213.94;6279180;20;2489820;-59
2022/05/10 00:47:51;;;;;;;;;20.50;20.00;;;;;12.64;95.56;100212.28;6276996;20;2500235;-60
2022/05/10 00:50:55;;;;;;;;;18.50;18.50;;;;;13.07;91.69;100205.06;6281428;20;2833637;-59
2022/05/10 00:54:22;;;;;;;;;20.50;18.00;;;;;12.83;93.15;100204.78;6282541;20;2491914;-59
2022/05/10 00:57:15;;;;;;;;;20.00;20.00;;;;;12.55;95.17;100194.84;6280664;20;2839868;-60
2022/05/10 01:00:07;;;;;;;;;19.00;19.00;;;;;12.55;95.17;100192.16;6279000;20;2500270;-59
2022/05/10 01:03:27;;;;;;;;;24.50;21.50;;;;;12.24;96.48;100182.38;6284407;20;2841917;-60
2022/05/10 01:06:12;;;;;;;;;23.00;18.00;;;;;12.38;96.02;100185.13;6282104;20;2842085;-60
2022/05/10 01:09:22;;;;;;;;;21.00;21.00;;;;;12.14;96.98;100182.09;6280606;20;2500404;-61
2022/05/10 01:12:18;;;;;;;;;19.50;17.00;;;;;12.34;95.83;100183.56;6280287;20;2496129;-60
2022/05/10 01:15:18;;;;;;;;;19.00;19.00;;;;;12.36;96.26;100178.97;6282251;20;2835666;-60
2022/05/10 01:17:47;;;;;;;;;23.00;20.00;;;;;12.45;95.01;100186.50;6281018;20;2835660;-60
2022/05/10 01:20:22;;;;;;;;;20.00;19.00;;;;;12.22;96.18;100184.34;6281047;20;2834646;-60
2022/05/10 01:23:54;;;;;;;;;22.50;22.00;;;;;12.13;97.85;100196.50;6280126;20;2850291;-60
2022/05/10 01:26:42;;;;;;;;;22.50;21.00;;;;;12.13;97.46;100187.56;6278944;20;2836759;-60
2022/05/10 01:29:29;;;;;;;;;22.50;20.50;;;;;12.25;97.38;100184.13;6275366;20;2846139;-60
2022/05/10 01:34:58;;;;;;;;;23.00;23.00;;;;;12.73;93.34;100185.63;6281932;20;2838928;-60
2022/05/10 01:37:34;;;;;;;;;24.00;24.00;;;;;12.56;93.58;100182.25;6280673;20;2844004;-59
2022/05/10 01:40:43;;;;;;;;;22.50;21.00;;;;;12.26;95.20;100185.88;6282426;20;2832670;-60
2022/05/10 01:43:20;;;;;;;;;22.50;21.00;;;;;12.27;96.19;100183.09;6281262;20;2835704;-60
2022/05/10 01:45:59;;;;;;;;;25.33;25.33;;;;;12.31;97.00;100181.06;6279719;20;2860718;-60
2022/05/10 01:48:35;;;;;;;;;26.33;24.67;;;;;12.57;94.57;100187.56;6314933;20;3587938;-59
2022/05/10 01:51:35;;;;;;;;;20.50;20.50;;;;;12.60;94.47;100189.19;6276970;20;2848388;-59
2022/05/10 01:54:39;;;;;;;;;22.00;20.00;;;;;12.36;94.84;100187.03;6281202;20;2850271;-60
2022/05/10 01:57:16;;;;;;;;;19.67;19.67;;;;;12.35;94.76;100185.31;6280887;20;3565856;-60
2022/05/10 01:59:55;;;;;;;;;22.00;21.00;;;;;12.19;95.31;100180.00;6276298;20;2844187;-60
2022/05/10 02:02:28;;;;;;;;;21.00;21.00;;;;;12.12;96.52;100177.75;6277780;20;2845080;-59
2022/05/10 02:05:02;;;;;;;;;17.00;17.00;;;;;12.17;97.25;100187.28;6279551;20;2824195;-58
2022/05/10 02:07:32;;;;;;;;;22.00;20.50;;;;;12.19;96.98;100174.63;6278016;20;2838829;-59
2022/05/10 02:10:25;;;;;;;;;20.00;20.00;;;;;12.01;98.04;100176.59;6279952;20;2724600;-59
2022/05/10 02:13:15;;;;;;;;;18.50;18.00;;;;;12.25;97.39;100178.75;6308776;20;2829435;-59
2022/05/10 02:16:02;;;;;;;;;23.50;18.00;;;;;12.09;97.98;100173.44;6280382;20;2827365;-59
2022/05/10 02:18:52;;;;;;;;;23.00;22.00;;;;;11.95;98.48;100174.22;6279035;20;2498283;-59
2022/05/10 02:21:41;;;;;;;;;21.00;21.00;;;;;11.97;99.09;100166.09;6277371;20;2500329;-59
2022/05/10 02:24:22;;;;;;;;;21.00;20.00;;;;;12.11;98.18;100167.94;6280449;20;2843998;-59
2022/05/10 02:27:12;;;;;;;;;26.50;23.50;;;;;12.07;97.38;100178.03;6278311;20;2851333;-59
2022/05/10 02:29:43;;;;;;;;;17.67;15.67;;;;;12.12;97.52;100167.84;6276893;20;3549178;-59
2022/05/10 02:35:17;;;;;;;;;19.50;19.00;;;;;12.25;97.01;100168.84;6279648;20;2824202;-59
2022/05/10 02:37:46;;;;;;;;;19.50;19.50;;;;;11.99;97.46;100167.72;6280657;20;2839936;-58
2022/05/10 02:40:15;;;;;;;;;19.00;19.00;;;;;12.00;97.70;100173.97;6281325;20;2820070;-59
2022/05/10 02:42:49;;;;;;;;;24.50;22.00;;;;;12.21;96.71;100166.44;6279530;20;2846204;-59
2022/05/10 02:45:18;;;;;;;;;21.00;20.00;;;;;12.19;97.16;100173.72;6281765;20;2496145;-59
2022/05/10 02:47:48;;;;;;;;;17.00;17.00;;;;;12.17;97.32;100165.75;6281111;20;2500269;-59
2022/05/10 02:50:33;;;;;;;;;17.50;17.00;;;;;12.20;96.75;100159.31;6275512;20;2833723;-59
2022/05/10 02:53:01;;;;;;;;;23.00;20.00;;;;;12.14;96.96;100160.56;6283301;20;2838907;-59
2022/05/10 02:55:56;;;;;;;;;21.00;19.50;;;;;12.16;97.04;100157.75;6279355;20;2491919;-59
2022/05/10 02:58:45;;;;;;;;;24.00;21.50;;;;;12.08;97.23;100161.81;6280699;20;2834669;-59
2022/05/10 03:01:34;;;;;;;;;20.50;20.50;;;;;12.08;97.46;100166.28;6280335;20;2825290;-59
2022/05/10 03:04:07;;;;;;;;;19.00;19.00;;;;;12.20;97.99;100153.94;6279041;20;3562797;-59
2022/05/10 03:06:38;;;;;;;;;24.50;20.50;;;;;12.23;95.60;100156.44;6279578;20;2839832;-58
2022/05/10 03:09:07;;;;;;;;;21.50;21.50;;;;;11.87;97.22;100155.00;6280734;20;2828392;-59
2022/05/10 03:11:36;;;;;;;;;19.67;17.67;;;;;11.88;97.96;100154.06;6284388;20;3569108;-58
2022/05/10 03:14:08;;;;;;;;;26.00;21.50;;;;;11.71;98.61;100157.69;6287786;20;2850245;-59
2022/05/10 03:16:38;;;;;;;;;21.50;19.50;;;;;11.92;98.33;100152.88;6284663;20;2828409;-58
2022/05/10 03:19:07;;;;;;;;;25.00;24.50;;;;;11.82;97.95;100151.66;6286415;20;2847115;-59
2022/05/10 03:21:39;;;;;;;;;24.50;22.50;;;;;11.78;97.76;100150.13;6282954;20;2852325;-59
2022/05/10 03:24:08;;;;;;;;;20.00;20.00;;;;;11.62;99.45;100159.09;6285120;20;2831638;-60
2022/05/10 03:26:37;;;;;;;;;22.00;22.00;;;;;11.63;100.00;100162.66;6286426;20;2842974;-60
2022/05/10 03:29:06;;;;;;;;;24.50;20.50;;;;;11.93;99.16;100157.34;6284904;20;2839867;-59
2022/05/10 03:31:34;;;;;;;;;28.00;22.00;;;;;12.01;97.84;100163.13;6285367;20;2842961;-59
2022/05/10 03:36:51;;;;;;;;;24.50;22.50;;;;;12.40;97.06;100161.66;6286646;20;2843986;-60
2022/05/10 03:39:18;;;;;;;;;21.50;18.00;;;;;12.07;97.38;100165.44;6283281;20;2835722;-60
2022/05/10 03:41:47;;;;;;;;;24.50;23.50;;;;;12.26;97.45;100164.31;6285432;20;2839033;-59
2022/05/10 03:44:16;;;;;;;;;23.50;21.00;;;;;12.17;97.22;100172.97;6287309;20;2845039;-60
2022/05/10 03:46:46;;;;;;;;;21.00;21.00;;;;;12.28;97.01;100163.28;6285525;20;2840987;-60
2022/05/10 03:49:16;;;;;;;;;23.00;21.00;;;;;12.42;97.11;100172.31;6282680;20;2846095;-59
2022/05/10 03:51:48;;;;;;;;;29.00;20.50;;;;;12.47;97.32;100168.38;6285232;20;2857620;-60
2022/05/10 03:54:17;;;;;;;;;22.00;22.00;;;;;12.71;96.18;100170.53;6281234;20;2845096;-60
2022/05/10 03:56:46;;;;;;;;;22.50;20.50;;;;;12.78;95.28;100171.88;6283998;20;2848303;-60
2022/05/10 03:59:15;;;;;;;;;22.00;22.00;;;;;12.45;96.29;100170.34;6283933;20;2849221;-60
2022/05/10 04:01:45;;;;;;;;;24.00;23.50;;;;;12.42;98.04;100170.50;6281704;20;2846253;-59
2022/05/10 04:04:14;;;;;;;;;22.50;22.50;;;;;12.65;96.19;100176.31;6281187;20;2846133;-59
2022/05/10 04:06:42;;;;;;;;;16.00;16.00;;;;;12.80;95.63;100169.09;6281628;20;2500337;-60
2022/05/10 04:09:11;;;;;;;;;24.50;20.00;;;;;13.13;94.12;100187.63;6284770;20;2840914;-60
2022/05/10 04:11:39;;;;;;;;;25.00;22.50;;;;;13.02;95.01;100179.38;6286192;20;2840867;-60
2022/05/10 04:14:08;;;;;;;;;20.00;20.00;;;;;13.35;93.05;100185.31;6287231;20;2542002;-60
2022/05/10 04:16:37;;;;;;;;;27.00;22.33;;;;;15.20;85.54;100191.59;6319647;20;3586685;-59
2022/05/10 04:19:06;;;;;;;;;20.00;18.50;;;;;15.75;81.39;100187.53;6282585;20;2841020;-60
2022/05/10 04:21:34;;;;;;;;;22.00;20.00;;;;;16.67;75.06;100196.72;6286077;20;2491959;-60
2022/05/10 04:24:03;;;;;;;;;20.50;18.00;;;;;14.40;85.92;100186.38;6286868;20;2844033;-60
2022/05/10 04:26:31;;;;;;;;;20.00;20.00;;;;;13.79;90.65;100181.50;6284994;20;2498206;-60
2022/05/10 04:29:00;;;;;;;;;18.00;18.00;;;;;13.63;91.67;100186.19;6289147;20;3562767;-60
2022/05/10 04:31:28;;;;;;;;;19.00;18.00;;;;;13.70;92.90;100182.13;6286706;20;2494001;-60
2022/05/10 04:33:57;;;;;;;;;15.00;15.00;;;;;13.75;92.52;100180.00;6287372;20;3537773;-52
2022/05/10 04:36:26;;;;;;;;;19.00;19.00;;;;;13.72;92.84;100188.28;6285699;20;2842022;-54
2022/05/10 04:38:54;;;;;;;;;21.00;21.00;;;;;14.04;91.60;100196.06;6281907;20;2496103;-47
2022/05/10 04:41:29;;;;;;;;;19.50;19.00;;;;;13.70;93.72;100186.66;6284572;20;2830597;-51
2022/05/10 04:44:06;;;;;;;;;19.00;18.50;;;;;13.73;92.99;100192.72;6277418;20;2834698;-55
2022/05/10 04:46:39;;;;;;;;;20.50;20.50;;;;;14.05;91.76;100195.94;6276849;20;2833624;-54
2022/05/10 04:49:11;;;;;;;;;20.00;19.00;;;;;14.40;88.23;100198.09;6283472;20;2492530;-52
2022/05/10 04:51:41;;;;;;;;;21.00;19.50;;;;;14.34;90.15;100203.03;6281105;20;2848295;-53
2022/05/10 04:54:09;;;;;;;;;23.00;20.50;;;;;14.25;91.07;100200.00;6282872;20;2831496;-54
2022/05/10 04:56:38;;;;;;;;;22.00;19.50;;;;;14.24;88.66;100203.69;6281636;20;2842955;-51
2022/05/10 04:59:07;;;;;;;;;23.00;20.00;;;;;14.42;88.96;100209.63;6281522;20;2842970;-54
2022/05/10 05:01:36;;;;;;;;;18.00;18.00;;;;;14.70;86.88;100205.91;6285622;20;2828364;-55
2022/05/10 05:04:04;;;;;;;;;21.50;21.50;;;;;14.67;86.77;100210.66;6283379;20;2498319;-52
2022/05/10 05:06:35;;;;;;;;;19.50;19.50;;;;;14.64;87.21;100209.03;6286599;20;2839872;-52
2022/05/10 05:09:04;;;;;;;;;21.50;21.00;;;;;14.89;86.67;100215.41;6288952;20;2855510;-51
2022/05/10 05:11:33;;;;;;;;;19.50;17.50;;;;;14.97;85.56;100218.44;6286671;20;2835719;-54
2022/05/10 05:14:02;;;;;;;;;19.00;19.00;;;;;14.75;86.38;100220.94;6287936;20;2838198;-52
2022/05/10 05:16:31;;;;;;;;;21.00;18.00;;;;;14.81;86.92;100223.19;6286036;20;2831503;-52
2022/05/10 05:19:00;;;;;;;;;27.00;26.00;;;;;14.65;88.61;100228.81;6287937;20;2852354;-47
2022/05/10 05:21:28;;;;;;;;;21.00;19.50;;;;;14.98;86.67;100227.41;6286905;20;2835681;-46
2022/05/10 05:23:56;;;;;;;;;19.50;19.50;;;;;15.11;85.29;100226.44;6286808;20;2496562;-49
2022/05/10 05:26:24;;;;;;;;;20.00;20.00;;;;;15.17;84.74;100232.38;6285540;20;2494470;-49
2022/05/10 05:28:53;;;;;;;;;20.00;18.50;;;;;15.40;83.71;100230.69;6287519;20;2824295;-49
2022/05/10 05:31:21;;;;;;;;;20.00;17.50;;;;;15.20;85.32;100234.88;6283391;20;2491918;-49
2022/05/10 05:33:50;;;;;;;;;17.00;17.00;;;;;15.36;85.46;100230.91;6284591;20;2829505;-48
2022/05/10 05:36:19;;;;;;;;;21.00;20.00;;;;;15.46;85.11;100225.72;6285907;20;2843046;-51
2022/05/10 05:38:50;;;;;;;;;18.00;18.00;;;;;15.65;82.31;100230.63;6280338;20;2827371;-51
2022/05/10 05:41:19;;;;;;;;;20.00;19.00;;;;;15.70;83.03;100236.59;6285307;20;2496122;-48
2022/05/10 05:43:47;;;;;;;;;20.00;17.00;;;;;15.87;83.17;100240.75;6283048;20;2837740;-50
2022/05/10 05:46:16;;;;;;;;;17.00;14.33;;;;;15.94;81.51;100236.59;6286549;20;3533603;-49
2022/05/10 05:48:46;;;;;;;;;16.00;16.00;;;;;15.80;82.95;100239.50;6282368;20;2829427;-48
2022/05/10 05:51:15;;;;;;;;;17.00;16.50;;;;;15.88;83.16;100237.09;6285955;20;2823198;-48
2022/05/10 05:53:43;;;;;;;;;19.00;19.00;;;;;15.81;85.90;100235.81;6286762;20;2824261;-48
2022/05/10 05:56:13;;;;;;;;;22.00;19.00;;;;;16.12;83.35;100241.63;6285260;20;2835719;-46
2022/05/10 05:58:41;;;;;;;;;20.00;19.00;;;;;16.16;81.02;100240.41;6286294;20;2830661;-46
2022/05/10 06:01:15;;;;;;;;;19.00;16.00;;;;;15.99;82.79;100239.84;6284767;20;2483681;-46
2022/05/10 06:03:44;;;;;;;;;19.50;19.50;;;;;15.95;83.97;100230.19;6287492;20;2831627;-46
2022/05/10 06:06:12;;;;;;;;;16.50;16.00;;;;;16.21;81.61;100233.66;6285145;20;2485698;-47
2022/05/10 06:08:45;;;;;;;;;20.00;17.50;;;;;16.25;81.51;100234.28;6286388;20;2832562;-47
2022/05/10 06:11:14;;;;;;;;;17.00;17.00;;;;;16.30;79.89;100232.09;6285855;20;2833773;-51
2022/05/10 06:13:42;;;;;;;;;16.00;16.00;;;;;16.15;80.64;100228.72;6283866;20;2492392;-48
2022/05/10 06:16:10;;;;;;;;;17.67;17.67;;;;;16.40;80.18;100233.13;6285803;20;3574194;-48
2022/05/10 06:18:41;;;;;;;;;18.00;18.00;;;;;16.92;79.60;100239.03;6284354;20;2833863;-50
2022/05/10 06:21:10;;;;;;;;;14.00;13.00;;;;;16.70;78.71;100239.84;6283441;20;3526269;-47
2022/05/10 06:23:39;;;;;;;;;16.00;16.00;;;;;17.21;77.62;100249.41;6283213;20;2831510;-48
2022/05/10 06:26:08;;;;;;;;;16.00;16.00;;;;;16.73;79.61;100245.03;6290905;20;2761759;-49
2022/05/10 06:28:37;;;;;;;;;18.50;18.00;;;;;17.44;76.89;100244.84;6284344;20;2821088;-46
2022/05/10 06:31:09;;;;;;;;;16.00;16.00;;;;;17.78;73.28;100243.81;6282267;20;2822119;-47
2022/05/10 06:33:37;;;;;;;;;16.50;16.00;;;;;18.23;72.64;100242.84;6282345;20;2491913;-48
2022/05/10 06:36:06;;;;;;;;;18.00;17.00;;;;;18.90;70.22;100238.91;6286281;20;2829568;-50
2022/05/10 06:38:36;;;;;;;;;14.33;14.33;;;;;18.80;68.71;100246.13;6283110;20;2819114;-48
2022/05/10 06:41:07;;;;;;;;;16.33;14.00;;;;;18.86;67.14;100237.47;6317438;20;3545106;-53
2022/05/10 06:43:36;;;;;;;;;13.00;13.00;;;;;19.48;63.55;100252.81;6283087;20;3528452;-50
2022/05/10 06:46:19;;;;;;;;;16.00;14.00;;;;;19.28;64.71;100246.41;6317072;20;2483604;-49
2022/05/10 06:48:48;;;;;;;;;12.00;12.00;;;;;19.56;63.18;100249.38;6285431;20;3521085;-46
2022/05/10 06:51:21;;;;;;;;;14.50;13.00;;;;;19.90;64.59;100247.19;6316369;20;2792023;-46
2022/05/10 06:53:52;;;;;;;;;13.00;13.00;;;;;20.54;62.57;100244.97;6283465;20;2492001;-49
2022/05/10 06:56:21;;;;;;;;;15.33;14.33;;;;;20.42;62.70;100251.56;6314454;20;3532624;-49
2022/05/10 06:58:50;;;;;;;;;11.00;11.00;;;;;21.07;60.98;100251.78;6282333;20;3513875;-46
2022/05/10 07:01:19;;;;;;;;;12.00;12.00;;;;;20.68;61.55;100251.84;6316097;20;3523144;-46
2022/05/10 07:03:50;;;;;;;;;10.00;10.00;;;;;20.68;59.85;100257.31;6291580;20;2782544;-48
2022/05/10 07:06:25;;;;;;;;;9.00;9.00;;;;;21.24;59.21;100256.44;6313332;20;2754401;-50
2022/05/10 07:08:54;;;;;;;;;11.33;11.33;;;;;21.10;58.93;100251.47;6314901;20;3512906;-49
2022/05/10 07:11:22;;;;;;;;;11.33;11.33;;;;;20.64;59.99;100259.44;6320393;20;2791955;-50
2022/05/10 07:13:51;;;;;;;;;12.67;12.67;;;;;20.28;60.09;100244.66;6312425;20;3533547;-47
2022/05/10 07:16:19;;;;;;;;;10.00;10.00;;;;;21.20;59.75;100250.44;6320935;20;2789949;-49
2022/05/10 07:18:48;;;;;;;;;13.67;12.67;;;;;20.91;58.19;100242.34;6315346;20;2489936;-47
2022/05/10 07:21:16;;;;;;;;;12.33;12.33;;;;;21.34;57.52;100248.22;6319564;20;2806527;-49
2022/05/10 07:23:45;;;;;;;;;10.00;10.00;;;;;21.87;56.09;100255.75;6312132;20;3499314;-51
2022/05/10 07:26:13;;;;;;;;;12.33;10.00;;;;;21.73;55.96;100259.00;6282858;20;3520060;-53
2022/05/10 07:28:42;;;;;;;;;13.00;12.00;;;;;21.29;58.98;100251.41;6313917;20;3523420;-48
2022/05/10 07:31:15;;;;;;;;;11.00;11.00;;;;;21.10;59.35;100252.34;6283408;20;3512778;-50
2022/05/10 07:33:43;;;;;;;;;13.33;11.00;;;;;21.33;55.88;100249.22;6283317;20;3507499;-53
2022/05/10 07:36:24;;;;;;;;;11.33;10.67;;;;;21.91;53.74;100251.72;6315797;20;2784300;-48
2022/05/10 07:38:53;;;;;;;;;10.33;10.33;;;;;21.55;52.68;100258.94;6311104;20;3511830;-49
2022/05/10 07:41:22;;;;;;;;;10.67;10.67;;;;;22.01;54.67;100247.03;6311027;20;3519015;-52
2022/05/10 07:43:52;;;;;;;;;12.67;9.33;;;;;22.44;52.92;100250.91;6288587;20;2781524;-48
2022/05/10 07:46:22;;;;;;;;;13.67;11.00;;;;;22.24;50.49;100246.59;6315537;20;3504378;-49
2022/05/10 07:48:51;;;;;;;;;12.67;9.33;;;;;21.76;53.68;100248.63;6315346;20;3493346;-47
2022/05/10 07:51:21;;;;;;;;;9.33;9.33;;;;;22.10;51.66;100254.28;6314605;20;2759615;-50
2022/05/10 07:53:50;;;;;;;;;10.33;10.33;;;;;22.09;51.79;100249.84;6314730;20;2785769;-50
2022/05/10 07:56:19;;;;;;;;;10.00;9.33;;;;;22.85;51.69;100251.22;6311772;20;2780579;-47
2022/05/10 07:58:57;;;;;;;;;9.67;9.00;;;;;23.12;48.90;100255.72;6324526;20;2764003;-50
2022/05/10 08:01:27;;;;;;;;;11.33;10.33;;;;;22.85;49.61;100256.69;6325489;20;2794024;-47
2022/05/10 08:03:56;;;;;;;;;10.00;10.00;;;;;23.44;49.19;100260.53;6322061;20;2788831;-50
2022/05/10 08:06:27;;;;;;;;;10.00;10.00;;;;;22.98;49.03;100262.63;6319779;20;3503499;-48
2022/05/10 08:08:55;;;;;;;;;11.33;10.00;;;;;23.58;46.93;100263.69;6318139;20;2790955;-54
2022/05/10 08:11:24;;;;;;;;;10.33;10.33;;;;;23.30;48.91;100261.16;6324975;20;2788845;-51
2022/05/10 08:13:53;;;;;;;;;13.33;10.00;;;;;23.37;49.22;100256.72;6318192;20;2790872;-53
2022/05/10 08:16:21;;;;;;;;;8.67;8.67;;;;;23.66;48.05;100260.97;6320200;20;3465931;-54
2022/05/10 08:18:50;;;;;;;;;10.33;10.33;;;;;23.90;48.33;100256.63;6325740;20;2789881;-51
2022/05/10 08:21:18;;;;;;;;;9.67;9.00;;;;;23.96;46.52;100255.94;6320942;20;2759660;-52
2022/05/10 08:23:49;;;;;;;;;8.33;8.33;;;;;23.10;45.95;100255.03;6319099;20;2749727;-50
2022/05/10 08:26:17;;;;;;;;;9.00;8.00;;;;;24.06;44.97;100254.78;6321951;20;2741973;-56
2022/05/10 08:28:47;;;;;;;;;13.00;13.00;;;;;22.76;46.02;100249.44;6318111;20;2782571;-52
2022/05/10 08:31:15;;;;;;;;;9.00;9.00;;;;;22.02;47.27;100248.75;6319211;20;3469093;-55
2022/05/10 08:33:45;;;;;;;;;11.00;9.00;;;;;23.12;47.90;100246.66;6318646;20;3486830;-55
2022/05/10 08:36:13;;;;;;;;;12.00;12.00;;;;;23.82;44.20;100250.09;6320308;20;3512716;-56
2022/05/10 08:38:42;;;;;;;;;10.33;10.33;;;;;24.11;44.35;100251.53;6316536;20;3513907;-52
2022/05/10 08:41:39;;;;;;;;;11.33;10.00;;;;;24.04;44.71;100247.72;6325639;20;2788923;-53
2022/05/10 08:44:18;;;;;;;;;12.00;12.00;;;;;23.68;44.53;100242.47;6319839;20;2794122;-56
2022/05/10 08:46:57;;;;;;;;;11.67;11.00;;;;;23.69;44.66;100238.69;6315415;20;3512843;-53
2022/05/10 08:49:53;;;;;;;;;10.67;9.67;;;;;24.28;45.18;100238.72;6314385;20;3509623;-51
2022/05/10 08:52:30;;;;;;;;;9.00;8.67;;;;;25.04;46.59;100251.25;6316409;20;2746088;-55
2022/05/10 08:54:59;;;;;;;;;8.00;8.00;;;;;24.66;44.55;100237.19;6325130;20;2737893;-50
2022/05/10 08:58:20;;;;;;;;;9.00;9.00;;;;;24.20;43.96;100242.31;6317779;20;2757570;-49
2022/05/10 09:01:17;;;;;;;;;10.00;10.00;;;;;24.47;44.48;100240.31;6321765;20;2791951;-47
2022/05/10 09:04:19;;;;;;;;;11.33;9.00;;;;;25.07;43.88;100242.66;6317205;20;2794017;-48
2022/05/10 09:08:11;;;;;;;;;9.00;9.00;;;;;25.29;41.34;100242.97;6346652;20;2770067;-48
2022/05/10 09:11:03;;;;;;;;;9.67;8.33;;;;;24.64;42.58;100244.75;6287222;20;2750293;-49
2022/05/10 09:13:32;;;;;;;;;9.00;9.00;;;;;25.06;41.35;100243.66;6325079;20;2750271;-52
2022/05/10 09:16:06;;;;;;;;;9.67;9.00;;;;;24.41;43.41;100243.69;6324526;20;2769116;-49
2022/05/10 09:18:54;;;;;;;;;9.00;9.00;;;;;24.52;41.87;100246.13;6319574;20;2756563;-45
2022/05/10 09:21:54;;;;;;;;;9.00;9.00;;;;;24.66;42.22;100237.19;6318982;20;2760751;-52
2022/05/10 09:24:41;;;;;;;;;10.00;9.00;;;;;24.95;41.61;100241.28;6317186;20;2772134;-53
2022/05/10 09:27:14;;;;;;;;;9.00;8.00;;;;;23.87;39.69;100236.72;6368214;20;1862813;-55
2022/05/10 09:29:51;;;;;;;;;7.40;6.80;;;;;24.26;39.79;100235.28;6345513;20;2738776;-53
2022/05/10 09:35:22;;;;;;;;;8.00;7.00;;;;;24.02;40.92;100233.34;6288952;20;2747162;-54
2022/05/10 09:38:09;;;;;;;;;10.40;8.80;;;;;24.03;39.80;100232.31;6343986;20;2757624;-52
2022/05/10 09:40:48;;;;;;;;;10.00;9.67;;;;;24.16;40.51;100227.19;6284172;20;2783640;-54
2022/05/10 09:43:32;;;;;;;;;9.00;9.00;;;;;25.24;41.15;100235.25;6325730;20;2747199;-54
2022/05/10 09:46:24;;;;;;;;;9.00;9.00;;;;;25.70;40.47;100240.06;6319571;20;2759657;-52
2022/05/10 09:48:52;;;;;;;;;8.00;8.00;;;;;25.05;38.93;100230.97;6317652;20;2747119;-49
2022/05/10 09:51:25;;;;;;;;;12.00;9.00;;;;;25.00;38.75;100227.91;6326326;20;2664858;-54
2022/05/10 09:53:56;;;;;;;;;8.00;8.00;;;;;26.13;38.39;100240.56;6315883;20;2736694;-52
2022/05/10 09:56:33;;;;;;;;;9.00;8.00;;;;;26.49;38.86;100235.31;6317027;20;2764876;-51
2022/05/10 09:59:12;;;;;;;;;7.33;7.33;;;;;25.34;38.18;100235.91;6318776;20;2745103;-49
2022/05/10 10:01:46;;;;;;;;;9.33;9.33;;;;;25.58;37.65;100232.19;6317797;20;2764835;-49
2022/05/10 10:04:40;;;;;;;;;8.00;8.00;;;;;25.44;38.08;100229.38;6319526;20;2743994;-52
2022/05/10 10:07:25;;;;;;;;;7.20;7.20;;;;;24.67;39.00;100216.97;6343456;20;2740906;-47
2022/05/10 10:10:14;;;;;;;;;9.33;9.33;;;;;25.83;37.06;100219.19;6286339;20;2773166;-48
2022/05/10 10:12:46;;;;;;;;;9.00;9.00;;;;;25.49;38.27;100200.28;6318763;20;2742953;-53
2022/05/10 10:15:35;;;;;;;;;7.20;7.00;;;;;25.69;39.36;100210.84;6345158;20;2748179;-50
2022/05/10 10:18:11;;;;;;;;;8.33;8.33;;;;;24.20;40.78;100205.78;6285936;20;2738787;-49
2022/05/10 10:20:55;;;;;;;;;9.00;9.00;;;;;24.05;39.75;100197.34;6318527;20;2756575;-50
2022/05/10 10:23:30;;;;;;;;;9.00;7.00;;;;;25.26;38.64;100204.84;6313281;20;2750264;-48
2022/05/10 10:26:17;;;;;;;;;7.67;7.33;;;;;25.93;36.95;100207.13;6324126;20;2753471;-52
2022/05/10 10:29:06;;;;;;;;;8.00;8.00;;;;;24.96;37.70;100193.53;6341253;20;2750312;-48
2022/05/10 10:31:46;;;;;;;;;9.00;7.67;;;;;25.66;37.38;100201.06;6290550;20;2741938;-49
2022/05/10 10:34:24;;;;;;;;;8.00;8.00;;;;;24.60;38.84;100195.84;6318127;20;2741974;-50
2022/05/10 10:37:13;;;;;;;;;8.33;8.33;;;;;24.00;39.19;100194.25;6315891;20;2746441;-47
2022/05/10 10:40:10;;;;;;;;;9.33;9.33;;;;;24.16;39.64;100191.53;6312934;20;2765863;-52
2022/05/10 10:43:13;;;;;;;;;8.60;8.60;;;;;23.80;41.63;100177.22;6338962;20;2742035;-47
2022/05/10 10:45:48;;;;;;;;;9.67;8.00;;;;;24.41;39.60;100186.03;6285703;20;2765941;-51
2022/05/10 10:49:00;;;;;;;;;9.33;9.33;;;;;25.38;39.94;100186.91;6319744;20;2773157;-53
2022/05/10 10:51:33;;;;;;;;;9.33;8.33;;;;;25.22;37.20;100176.00;6312395;20;2755483;-52
2022/05/10 10:54:03;;;;;;;;;4.60;4.60;;;;;25.60;37.52;100179.78;6340240;20;2729407;-53
2022/05/10 10:57:21;;;;;;;;;9.50;8.00;;;;;26.18;38.47;100183.06;6340093;20;2785663;-49
2022/05/10 11:00:19;;;;;;;;;8.60;7.40;;;;;25.81;36.84;100166.25;6339349;20;2748277;-48
2022/05/10 11:03:20;;;;;;;;;11.00;9.33;;;;;25.73;37.92;100163.56;6281419;20;3504423;-49
2022/05/10 11:06:24;;;;;;;;;11.00;10.00;;;;;25.59;38.04;100173.44;6313204;20;2796201;-49
2022/05/10 11:09:23;;;;;;;;;5.60;5.60;;;;;25.23;37.97;100166.72;6338495;20;2727371;-50
2022/05/10 11:12:48;;;;;;;;;8.20;6.40;;;;;26.03;37.12;100164.56;6344834;20;2742029;-49
2022/05/10 11:15:59;;;;;;;;;11.00;11.00;;;;;24.88;38.11;100152.34;6288914;20;2791961;-50
2022/05/10 11:19:09;;;;;;;;;7.00;7.00;;;;;23.90;40.87;100141.44;6312178;20;2752368;-49
2022/05/10 11:22:09;;;;;;;;;9.67;7.67;;;;;24.61;39.85;100146.25;6311691;20;2753474;-54
2022/05/10 11:25:06;;;;;;;;;9.33;9.00;;;;;24.65;39.57;100138.53;6321773;20;2755464;-50
2022/05/10 11:28:15;;;;;;;;;9.67;8.67;;;;;25.94;37.68;100132.66;6313869;20;2759616;-53
2022/05/10 11:31:24;;;;;;;;;8.00;8.00;;;;;26.39;37.87;100122.66;6318539;20;2750371;-54
2022/05/10 11:34:14;;;;;;;;;9.67;9.67;;;;;26.44;37.20;100117.44;6327151;20;2785671;-53
2022/05/10 11:36:48;;;;;;;;;9.60;8.40;;;;;24.80;38.28;100112.03;6342818;20;2744014;-53
2022/05/10 11:40:02;;;;;;;;;0.00;0.00;;;;;24.80;39.66;100123.03;6292629;20;2723184;-51
2022/05/10 11:43:13;;;;;;;;;8.40;6.80;;;;;24.47;39.79;100105.78;6349348;20;2739882;-53
2022/05/10 11:46:33;;;;;;;;;8.67;7.00;;;;;24.14;40.50;100103.03;6297750;20;2753427;-49
2022/05/10 11:50:27;;;;;;;;;9.00;8.00;;;;;24.10;40.63;100097.03;6326120;20;2749274;-52
2022/05/10 11:53:29;;;;;;;;;9.33;9.33;;;;;24.13;40.29;100084.84;6317906;20;2761701;-53
2022/05/10 11:56:00;;;;;;;;;9.00;9.00;;;;;25.18;38.30;100088.41;6319266;20;2756479;-51
2022/05/10 11:58:31;;;;;;;;;9.00;9.00;;;;;25.69;38.10;100084.31;6326778;20;2754432;-51